Startpagina
METAR-TAF:

METAR-TAF

Vliegvelden :

Flughafen Dortmund

Dortmund, Duitsland

breedte: 51-31N, lengte: 007-37E, hoogte: 127 m

Actueel weer

Dit bericht is 32 minuten geleden gemaakt, om 08:50 UTC
Wind 2 kt uit variabele richting
Temperatuur 9°C
Vochtigheid 87%
Druk 1031 hPa
Zicht 10 km of meer
geen wolken onder 1500 m en geen cumulonimbus

METAR: EDLW 200850Z VRB02KT CAVOK 09/07 Q1031

Tijdstip: 11:22 (09:22 UTC)

Verwachting

Dit bericht is 4 uur en het 22 minuten geleden gemaakt, om 05:00 UTC
Verwachting geldig van 20 om 06 UTC tot 21 om 06 UTC
Wind 3 kt uit variabele richting
Zicht 10 km of meer
geen wolken onder 1500 m en geen cumulonimbus
Kans 30% :
Tijdelijke
van 20 om 06 UTC tot 20 om 08 UTC
Zicht: 2500 m
nevel
Tijdelijke
van 21 om 02 UTC tot 21 om 06 UTC
Zicht: 4000 m
nevel

TAF: EDLW 200500Z 2006/2106 VRB03KT CAVOK PROB30 TEMPO 2006/2008 2500 BR TEMPO 2102/2106 4000 BR

Waarnemingen en weersverwachtingen van meer dan 4000 vliegvelden (METAR en TAF).

De beschikbare stations zijn de gele en rode punten op de kaart.

Ga met uw muis naar het station om de naam te zien.

Klik dan om waarnemingen en weersverwachtingen te zien.

kaart wijzigen: klik op de groene knoppen met een zwart kruis om in te zoomen, op de groene knop met een streepje om uit te zoomen of op de groene pijlen voor aangrenzende kaarten.


METAR-TAF: